Terminal Aerodrome Forecast
Issued by NWS

Home | Current Version | Previous Version | Text Only | Print | Product List | Glossary On
Versions: 1 2 3 4 5 6 7 8 9 10 11 12 13 14 15 16 17 18 19 20
000
FTUS43 KGRR 280851 AAA
TAFMKG
TAF AMD
KMKG 280851Z 2809/2906 VRB03KT P6SM SCT250
     FM281000 VRB03KT 4SM BR SKC
     FM281300 20009KT P6SM BKN200
     FM290200 VRB03KT P6SM OVC100=

USA.gov is the U.S. government's official web portal to all federal, state and local government web resources and services.